Terminal Aerodrome Forecast
Issued by NWS

Home | Current Version | Previous Version | Text Only | Print | Product List | Glossary On
Versions: 1 2 3 4 5 6 7 8 9 10 11 12 13 14 15
000
FTUS42 KTBW 300531
TAFRSW
TAF
KRSW 300531Z 3006/3106 10007KT P6SM SCT020 BKN080
     FM301400 15007KT P6SM VCSH SCT025 BKN035 OVC080
     FM301800 18010KT P6SM VCTS SCT025CB BKN035 OVC080
      TEMPO 3020/3023 4SM TSRA SCT025CB OVC030
     FM310200 15007KT P6SM VCSH SCT020 BKN035 OVC050=

USA.gov is the U.S. government's official web portal to all federal, state and local government web resources and services.